createdAt,value
2022-10-17T00:00:59.646Z,24.33
2022-10-17T00:03:34.170Z,25.77
2022-10-17T00:06:09.604Z,26.02
2022-10-17T00:08:37.922Z,25.95
2022-10-17T00:11:09.293Z,23.95
2022-10-17T00:13:36.654Z,26.52
2022-10-17T00:16:05.017Z,24.70
2022-10-17T00:18:32.437Z,23.38
2022-10-17T00:20:59.961Z,24.63
2022-10-17T00:23:30.586Z,25.38
2022-10-17T00:26:03.215Z,22.77
2022-10-17T00:28:30.922Z,24.60
2022-10-17T00:30:59.876Z,21.00
2022-10-17T00:33:28.382Z,24.75
2022-10-17T00:36:19.167Z,24.45
2022-10-17T00:38:48.103Z,25.67
2022-10-17T00:41:17.655Z,22.45
2022-10-17T00:43:56.991Z,25.05
2022-10-17T00:46:27.161Z,24.98
2022-10-17T00:48:56.467Z,24.85
2022-10-17T00:51:34.125Z,23.65
2022-10-17T00:54:02.920Z,24.70
2022-10-17T00:56:30.853Z,26.05
2022-10-17T00:58:59.616Z,24.55
2022-10-17T01:01:27.362Z,25.90
2022-10-17T01:03:54.660Z,24.13
2022-10-17T01:06:22.100Z,26.20
2022-10-17T01:08:49.350Z,26.95
2022-10-17T01:11:35.603Z,23.98
2022-10-17T01:14:09.021Z,20.83
2022-10-17T01:16:49.121Z,25.75
2022-10-17T01:19:20.722Z,26.35
2022-10-17T01:22:00.425Z,25.45
2022-10-17T01:24:58.513Z,26.83
2022-10-17T01:27:30.386Z,22.63
2022-10-17T01:30:10.321Z,23.60
2022-10-17T01:32:50.593Z,24.63
2022-10-17T01:35:54.120Z,26.00
2022-10-17T01:38:34.581Z,25.98
2022-10-17T01:41:21.546Z,25.08
2022-10-17T01:46:39.024Z,24.05
2022-10-17T01:49:09.975Z,25.88
2022-10-17T01:51:42.153Z,24.05
2022-10-17T01:54:30.356Z,25.42
2022-10-17T01:57:01.691Z,26.67
2022-10-17T01:59:42.260Z,22.58
2022-10-17T02:02:10.533Z,24.70
2022-10-17T02:04:38.077Z,24.00
2022-10-17T02:07:10.216Z,25.15
2022-10-17T02:09:38.420Z,26.23
2022-10-17T02:12:23.699Z,25.80
2022-10-17T02:15:04.787Z,25.08
2022-10-17T02:17:45.335Z,25.58
2022-10-17T02:20:21.877Z,25.30
2022-10-17T02:22:52.147Z,24.75
2022-10-17T02:25:54.102Z,26.88
2022-10-17T02:29:02.044Z,23.40
2022-10-17T02:31:47.215Z,23.60
2022-10-17T02:34:36.674Z,23.42
2022-10-17T02:37:08.627Z,23.88
2022-10-17T02:39:38.201Z,25.60
2022-10-17T02:42:10.219Z,22.58
2022-10-17T02:44:44.163Z,24.60
2022-10-17T02:47:18.996Z,25.02
2022-10-17T02:49:51.661Z,23.52
2022-10-17T02:52:45.432Z,23.33
2022-10-17T02:55:22.426Z,23.83
2022-10-17T02:58:02.773Z,23.05
2022-10-17T03:00:31.561Z,24.15
2022-10-17T03:02:59.074Z,23.45
2022-10-17T03:05:28.762Z,23.67
2022-10-17T03:07:56.912Z,23.70
2022-10-17T03:10:25.450Z,26.10
2022-10-17T03:12:53.176Z,23.92
2022-10-17T03:15:21.104Z,23.08
2022-10-17T03:17:48.631Z,21.90
2022-10-17T03:20:17.252Z,23.02
2022-10-17T03:22:46.936Z,24.35
2022-10-17T03:25:14.273Z,24.33
2022-10-17T03:27:41.715Z,23.70
2022-10-17T03:30:10.232Z,23.20
2022-10-17T03:32:37.678Z,24.17
2022-10-17T03:35:05.253Z,23.92
2022-10-17T03:37:32.801Z,28.35
2022-10-17T03:40:00.494Z,28.10
2022-10-17T03:42:27.905Z,26.42
2022-10-17T03:44:55.040Z,26.02
2022-10-17T03:47:23.148Z,25.80
2022-10-17T03:49:53.544Z,23.67
2022-10-17T03:52:21.861Z,25.38
2022-10-17T03:54:51.788Z,26.00
2022-10-17T03:57:20.005Z,29.60
2022-10-17T03:59:47.646Z,28.85
2022-10-17T04:02:18.676Z,27.52
2022-10-17T04:04:46.362Z,27.15
2022-10-17T04:07:14.141Z,24.70
2022-10-17T04:09:44.621Z,30.60
2022-10-17T04:12:16.260Z,26.05
2022-10-17T04:14:44.307Z,24.30
2022-10-17T04:17:12.350Z,29.75
2022-10-17T04:19:40.554Z,30.60
2022-10-17T04:22:08.553Z,26.15
2022-10-17T04:24:38.313Z,22.85
2022-10-17T04:27:09.478Z,29.08
2022-10-17T04:29:40.968Z,24.75
2022-10-17T04:32:17.357Z,25.98
2022-10-17T04:35:09.173Z,24.75
2022-10-17T04:37:37.741Z,26.65
2022-10-17T04:40:13.266Z,25.95
2022-10-17T04:42:41.394Z,27.90
2022-10-17T04:45:11.041Z,30.95
2022-10-17T04:47:42.360Z,25.90
2022-10-17T04:50:10.607Z,24.75
2022-10-17T04:52:39.748Z,23.48
2022-10-17T04:55:09.368Z,24.55
2022-10-17T04:57:37.505Z,24.65
2022-10-17T05:00:19.711Z,25.70
2022-10-17T05:02:54.620Z,26.02
2022-10-17T05:05:22.223Z,27.08
2022-10-17T05:07:53.010Z,27.15
2022-10-17T05:10:24.125Z,25.67
2022-10-17T05:12:53.340Z,26.33
2022-10-17T05:15:23.749Z,27.88
2022-10-17T05:17:56.259Z,30.80
2022-10-17T05:20:25.731Z,26.30
2022-10-17T05:22:53.907Z,25.05
2022-10-17T05:25:21.816Z,29.98
2022-10-17T05:27:50.254Z,23.05
2022-10-17T05:30:18.489Z,25.88
2022-10-17T05:32:46.547Z,25.77
2022-10-17T05:35:14.216Z,23.55
2022-10-17T05:37:42.407Z,25.80
2022-10-17T05:40:10.927Z,24.63
2022-10-17T05:45:11.635Z,23.70
2022-10-17T05:47:39.210Z,24.05
2022-10-17T05:50:07.778Z,24.63
2022-10-17T05:52:54.091Z,28.95
2022-10-17T05:55:23.301Z,29.30
2022-10-17T05:57:52.799Z,25.90
2022-10-17T06:00:22.649Z,27.20
2022-10-17T06:02:56.971Z,28.02
2022-10-17T06:05:24.916Z,27.20
2022-10-17T06:07:56.999Z,30.92
2022-10-17T06:10:27.519Z,29.60
2022-10-17T06:12:56.779Z,27.50
2022-10-17T06:15:24.307Z,29.45
2022-10-17T06:17:58.598Z,28.35
2022-10-17T06:20:25.949Z,30.60
2022-10-17T06:22:53.814Z,29.40
2022-10-17T06:25:34.589Z,27.13
2022-10-17T06:28:02.252Z,30.77
2022-10-17T06:30:30.156Z,29.23
2022-10-17T06:32:57.793Z,31.63
2022-10-17T06:35:25.191Z,27.80
2022-10-17T06:37:52.721Z,30.55
2022-10-17T06:40:21.735Z,28.27
2022-10-17T06:42:49.648Z,30.05
2022-10-17T06:45:35.284Z,31.63
2022-10-17T06:48:21.500Z,28.13
2022-10-17T06:51:11.747Z,25.73
2022-10-17T06:53:48.269Z,27.80
2022-10-17T06:56:47.648Z,31.65
2022-10-17T06:59:30.316Z,32.45
2022-10-17T07:02:03.448Z,31.63
2022-10-17T07:04:31.561Z,36.47
2022-10-17T07:09:27.984Z,31.85
2022-10-17T07:11:58.339Z,28.33
2022-10-17T07:14:32.046Z,29.30
2022-10-17T07:17:00.106Z,31.92
2022-10-17T07:19:29.852Z,28.73
2022-10-17T07:21:57.201Z,30.70
2022-10-17T07:24:25.292Z,31.25
2022-10-17T07:26:58.225Z,29.40
2022-10-17T07:29:26.480Z,26.55
2022-10-17T07:32:14.234Z,28.23
2022-10-17T07:34:41.690Z,29.20
2022-10-17T07:37:10.755Z,26.88
2022-10-17T07:39:40.851Z,32.15
2022-10-17T07:42:08.546Z,30.88
2022-10-17T07:44:36.088Z,30.27
2022-10-17T07:47:04.506Z,31.52
2022-10-17T07:49:32.094Z,38.90
2022-10-17T07:51:59.584Z,36.22
2022-10-17T07:54:27.042Z,28.55
2022-10-17T07:56:54.362Z,36.67
2022-10-17T07:59:21.927Z,27.42
2022-10-17T08:01:49.244Z,31.98
2022-10-17T08:04:17.562Z,31.10
2022-10-17T08:06:45.003Z,33.50
2022-10-17T08:09:12.640Z,32.72
2022-10-17T08:11:40.063Z,29.00
2022-10-17T08:14:07.578Z,25.45
2022-10-17T08:16:34.825Z,28.52
2022-10-17T08:19:02.893Z,29.05
2022-10-17T08:21:31.027Z,28.95
2022-10-17T08:23:59.405Z,31.83
2022-10-17T08:26:26.814Z,25.83
2022-10-17T08:28:54.506Z,31.15
2022-10-17T08:31:22.569Z,29.45
2022-10-17T08:33:50.894Z,31.23
2022-10-17T08:36:20.702Z,30.48
2022-10-17T08:38:52.637Z,32.17
2022-10-17T08:41:46.936Z,34.22
2022-10-17T08:44:40.875Z,26.00
2022-10-17T08:47:41.085Z,29.58
2022-10-17T08:50:33.825Z,35.92
2022-10-17T08:53:23.776Z,32.45
2022-10-17T08:55:53.387Z,32.05
2022-10-17T08:58:24.216Z,34.08
2022-10-17T09:01:18.695Z,39.95
2022-10-17T09:03:53.503Z,39.92
2022-10-17T09:06:31.726Z,36.72
2022-10-17T09:09:09.371Z,28.38
2022-10-17T09:11:42.727Z,34.30
2022-10-17T09:15:01.015Z,32.70
2022-10-17T09:20:19.478Z,34.30
2022-10-17T09:23:07.154Z,31.52
2022-10-17T09:25:44.194Z,28.17
2022-10-17T09:28:11.857Z,35.75
2022-10-17T09:30:51.832Z,32.20
2022-10-17T09:33:34.765Z,32.90
2022-10-17T09:36:30.596Z,31.25
2022-10-17T09:39:04.496Z,32.97
2022-10-17T09:41:46.070Z,34.42
2022-10-17T09:44:29.318Z,31.98
2022-10-17T09:47:27.534Z,25.25
2022-10-17T09:49:55.098Z,32.97
2022-10-17T09:52:25.358Z,29.85
2022-10-17T09:55:00.238Z,32.67
2022-10-17T09:57:27.545Z,30.08
2022-10-17T09:59:58.073Z,31.83
2022-10-17T10:02:27.219Z,24.48
2022-10-17T10:05:07.484Z,31.58
2022-10-17T10:07:39.587Z,25.95
2022-10-17T10:10:24.020Z,20.77
2022-10-17T10:13:15.307Z,22.30
2022-10-17T10:15:48.140Z,23.65
2022-10-17T10:18:35.240Z,22.88
2022-10-17T10:21:20.253Z,19.42
2022-10-17T10:24:10.443Z,17.02
2022-10-17T10:26:47.451Z,21.50
2022-10-17T10:29:38.281Z,17.58
2022-10-17T10:32:26.606Z,18.05
2022-10-17T10:35:00.924Z,18.65
2022-10-17T10:37:46.451Z,19.00
2022-10-17T10:40:24.503Z,14.63
2022-10-17T10:42:55.200Z,18.30
2022-10-17T10:45:46.914Z,18.35
2022-10-17T10:48:51.184Z,17.58
2022-10-17T10:51:27.834Z,18.00
2022-10-17T10:54:10.425Z,15.38
2022-10-17T10:56:49.855Z,16.05
2022-10-17T10:59:43.011Z,15.80
2022-10-17T11:02:19.000Z,15.38
2022-10-17T11:05:02.882Z,13.02
2022-10-17T11:07:48.934Z,12.68
2022-10-17T11:10:30.931Z,14.70
2022-10-17T11:13:11.812Z,12.93
2022-10-17T11:16:01.863Z,12.95
2022-10-17T11:19:09.800Z,12.82
2022-10-17T11:21:46.902Z,11.98
2022-10-17T11:24:28.101Z,11.38
2022-10-17T11:27:06.594Z,12.50
2022-10-17T11:29:40.450Z,13.98
2022-10-17T11:32:32.738Z,12.10
2022-10-17T11:35:19.137Z,9.65
2022-10-17T11:38:02.730Z,12.60
2022-10-17T11:40:35.505Z,12.48
2022-10-17T11:43:13.547Z,14.60
2022-10-17T11:45:46.049Z,14.40
2022-10-17T11:48:21.875Z,12.98
2022-10-17T11:53:54.886Z,14.13
2022-10-17T11:56:32.642Z,15.60
2022-10-17T11:59:40.061Z,15.15
2022-10-17T12:02:20.458Z,16.20
2022-10-17T12:05:05.744Z,16.15
2022-10-17T12:08:01.530Z,16.17
2022-10-17T12:10:56.841Z,16.20
2022-10-17T12:13:33.801Z,17.92
2022-10-17T12:16:19.695Z,19.50
2022-10-17T12:19:11.066Z,18.80
2022-10-17T12:22:26.147Z,17.42
2022-10-17T12:24:58.157Z,18.15
2022-10-17T12:27:47.444Z,15.80
2022-10-17T12:30:27.786Z,18.20
2022-10-17T12:33:12.871Z,21.45
2022-10-17T12:35:40.362Z,18.83
2022-10-17T12:38:17.167Z,21.00
2022-10-17T12:40:48.640Z,19.63
2022-10-17T12:43:16.567Z,21.35
2022-10-17T12:46:00.530Z,21.77
2022-10-17T12:48:33.853Z,22.02
2022-10-17T12:51:34.080Z,20.63
2022-10-17T12:54:12.202Z,21.55
2022-10-17T12:56:41.652Z,22.40
2022-10-17T12:59:21.767Z,19.50
2022-10-17T13:01:55.811Z,19.98
2022-10-17T13:04:24.564Z,19.25
2022-10-17T13:06:56.431Z,19.33
2022-10-17T13:09:33.571Z,19.08
2022-10-17T13:12:05.303Z,20.40
2022-10-17T13:14:35.053Z,17.70
2022-10-17T13:17:05.355Z,17.70
2022-10-17T13:19:42.697Z,17.25
2022-10-17T13:22:25.241Z,18.90
2022-10-17T13:25:06.526Z,17.73
2022-10-17T13:27:35.745Z,17.48
2022-10-17T13:30:27.999Z,17.15
2022-10-17T13:32:59.294Z,15.73
2022-10-17T13:35:59.068Z,15.63
2022-10-17T13:38:32.830Z,15.07
2022-10-17T13:41:23.287Z,16.73
2022-10-17T13:43:51.350Z,18.40
2022-10-17T13:46:39.474Z,15.32
2022-10-17T13:49:33.991Z,16.45
2022-10-17T13:52:04.089Z,15.75
2022-10-17T13:54:35.893Z,15.30
2022-10-17T13:57:05.365Z,15.88
2022-10-17T13:59:41.364Z,15.82
2022-10-17T14:05:15.073Z,15.82
2022-10-17T14:10:42.753Z,15.45
2022-10-17T14:13:25.366Z,14.05
2022-10-17T14:15:54.939Z,16.45
2022-10-17T14:18:30.837Z,17.45
2022-10-17T14:23:52.087Z,19.88
2022-10-17T14:26:22.299Z,17.17
2022-10-17T14:29:03.335Z,17.95
2022-10-17T14:31:33.901Z,17.85
2022-10-17T14:34:04.479Z,17.23
2022-10-17T14:36:40.274Z,17.45
2022-10-17T14:39:19.692Z,18.90
2022-10-17T14:41:48.230Z,19.20
2022-10-17T14:44:30.814Z,18.05
2022-10-17T14:47:24.054Z,21.38
2022-10-17T14:50:03.068Z,20.08
2022-10-17T14:52:31.947Z,19.63
2022-10-17T14:55:12.744Z,19.17
2022-10-17T14:57:46.779Z,21.15
2022-10-17T15:00:18.745Z,22.52
2022-10-17T15:02:47.518Z,22.98
2022-10-17T15:05:15.743Z,22.80
2022-10-17T15:07:43.819Z,22.13
2022-10-17T15:10:35.859Z,20.98
2022-10-17T15:13:26.536Z,21.27
2022-10-17T15:15:52.608Z,23.17
2022-10-17T15:18:19.914Z,19.40
2022-10-17T15:20:50.104Z,23.42
2022-10-17T15:23:23.492Z,25.30
2022-10-17T15:25:51.369Z,19.98
2022-10-17T15:28:18.756Z,19.48
2022-10-17T15:30:46.274Z,25.80
2022-10-17T15:33:13.432Z,25.00
2022-10-17T15:35:43.467Z,26.17
2022-10-17T15:38:18.162Z,21.48
2022-10-17T15:40:48.946Z,26.52
2022-10-17T15:43:19.782Z,27.35
2022-10-17T15:45:48.137Z,27.23
2022-10-17T15:48:30.095Z,26.58
2022-10-17T15:50:58.210Z,26.42
2022-10-17T15:53:25.564Z,28.38
2022-10-17T15:55:53.356Z,26.30
2022-10-17T15:58:20.801Z,27.35
2022-10-17T16:00:49.006Z,27.27
2022-10-17T16:03:16.402Z,27.35
2022-10-17T16:05:43.931Z,27.05
2022-10-17T16:08:11.115Z,27.27
2022-10-17T16:10:40.638Z,28.17
2022-10-17T16:13:22.740Z,27.15
2022-10-17T16:15:50.854Z,26.65
2022-10-17T16:18:21.550Z,28.58
2022-10-17T16:20:49.368Z,26.63
2022-10-17T16:23:16.747Z,28.70
2022-10-17T16:25:44.477Z,29.52
2022-10-17T16:28:12.217Z,27.42
2022-10-17T16:30:42.859Z,27.88
2022-10-17T16:33:10.844Z,29.08
2022-10-17T16:35:38.710Z,25.92
2022-10-17T16:38:07.817Z,28.75
2022-10-17T16:40:37.910Z,30.00
2022-10-17T16:43:05.541Z,30.08
2022-10-17T16:45:33.375Z,25.65
2022-10-17T16:48:00.741Z,27.92
2022-10-17T16:50:28.280Z,28.85
2022-10-17T16:52:55.628Z,31.95
2022-10-17T16:55:23.387Z,30.73
2022-10-17T16:57:52.354Z,30.45
2022-10-17T17:00:20.030Z,30.13
2022-10-17T17:02:48.090Z,32.88
2022-10-17T17:05:15.985Z,33.83
2022-10-17T17:07:44.316Z,33.55
2022-10-17T17:10:11.821Z,34.38
2022-10-17T17:12:39.039Z,35.47
2022-10-17T17:15:06.689Z,34.30
2022-10-17T17:17:50.285Z,31.35
2022-10-17T17:20:20.090Z,32.38
2022-10-17T17:22:47.371Z,35.20
2022-10-17T17:25:15.153Z,34.33
2022-10-17T17:27:42.408Z,33.03
2022-10-17T17:30:10.315Z,33.45
2022-10-17T17:32:38.216Z,35.97
2022-10-17T17:35:06.060Z,35.58
2022-10-17T17:37:33.676Z,33.47
2022-10-17T17:40:01.315Z,33.65
2022-10-17T17:42:28.929Z,35.63
2022-10-17T17:44:56.647Z,34.47
2022-10-17T17:47:24.065Z,50.50
2022-10-17T17:49:51.572Z,36.47
2022-10-17T17:52:18.863Z,31.85
2022-10-17T17:54:46.441Z,31.95
2022-10-17T17:57:13.862Z,32.63
2022-10-17T17:59:41.639Z,32.97
2022-10-17T18:02:10.853Z,33.45
2022-10-17T18:04:38.429Z,31.23
2022-10-17T18:07:05.964Z,33.00
2022-10-17T18:09:33.500Z,33.95
2022-10-17T18:12:00.754Z,31.42
2022-10-17T18:14:28.741Z,29.73
2022-10-17T18:16:56.001Z,28.73
2022-10-17T18:19:23.939Z,28.00
2022-10-17T18:21:51.399Z,29.90
2022-10-17T18:24:19.322Z,29.95
2022-10-17T18:26:46.706Z,25.88
2022-10-17T18:29:14.332Z,29.48
2022-10-17T18:31:42.011Z,24.92
2022-10-17T18:34:10.157Z,30.00
2022-10-17T18:36:37.884Z,25.30
2022-10-17T18:39:05.889Z,27.73
2022-10-17T18:41:34.101Z,24.83
2022-10-17T18:44:03.172Z,34.17
2022-10-17T18:46:40.605Z,30.27
2022-10-17T18:49:14.263Z,25.73
2022-10-17T18:51:42.456Z,28.48
2022-10-17T18:54:17.121Z,30.50
2022-10-17T18:56:45.203Z,35.83
2022-10-17T18:59:12.924Z,30.90
2022-10-17T19:01:40.227Z,29.17
2022-10-17T19:04:07.889Z,27.90
2022-10-17T19:06:35.131Z,28.23
2022-10-17T19:09:05.161Z,27.20
2022-10-17T19:11:34.758Z,30.00
2022-10-17T19:14:04.478Z,28.23
2022-10-17T19:16:36.421Z,26.05
2022-10-17T19:19:16.706Z,27.25
2022-10-17T19:21:44.453Z,26.02
2022-10-17T19:24:18.257Z,26.98
2022-10-17T19:26:47.150Z,30.15
2022-10-17T19:29:16.196Z,26.65
2022-10-17T19:31:44.194Z,28.52
2022-10-17T19:34:12.614Z,35.00
2022-10-17T19:36:40.584Z,31.20
2022-10-17T19:39:12.553Z,28.80
2022-10-17T19:41:44.284Z,29.70
2022-10-17T19:44:12.276Z,29.15
2022-10-17T19:46:39.917Z,25.73
2022-10-17T19:49:07.924Z,27.02
2022-10-17T19:51:35.368Z,27.42
2022-10-17T19:54:03.434Z,28.33
2022-10-17T19:56:33.774Z,26.60
2022-10-17T19:59:01.544Z,26.40
2022-10-17T20:01:32.250Z,27.25
2022-10-17T20:04:00.086Z,25.90
2022-10-17T20:06:27.541Z,25.55
2022-10-17T20:08:55.084Z,27.13
2022-10-17T20:11:24.875Z,28.23
2022-10-17T20:13:53.087Z,26.92
2022-10-17T20:16:26.518Z,27.13
2022-10-17T20:18:56.399Z,24.10
2022-10-17T20:21:33.090Z,26.40
2022-10-17T20:24:01.153Z,26.25
2022-10-17T20:26:44.380Z,26.25
2022-10-17T20:29:16.628Z,25.85
2022-10-17T20:31:45.496Z,26.20
2022-10-17T20:34:15.763Z,26.23
2022-10-17T20:36:43.310Z,26.15
2022-10-17T20:39:13.749Z,26.05
2022-10-17T20:41:41.587Z,27.10
2022-10-17T20:44:09.827Z,26.25
2022-10-17T20:46:44.318Z,26.60
2022-10-17T20:49:18.830Z,27.02
2022-10-17T20:51:46.755Z,27.45
2022-10-17T20:54:16.809Z,24.88
2022-10-17T20:56:44.177Z,26.77
2022-10-17T20:59:14.069Z,26.52
2022-10-17T21:01:41.881Z,28.58
2022-10-17T21:04:43.997Z,27.25
2022-10-17T21:06:57.186Z,25.85
2022-10-17T21:09:24.886Z,26.48
2022-10-17T21:11:55.255Z,25.25
2022-10-17T21:14:24.713Z,27.13
2022-10-17T21:16:52.650Z,25.77
2022-10-17T21:19:21.933Z,27.55
2022-10-17T21:21:49.539Z,26.83
2022-10-17T21:24:20.981Z,27.25
2022-10-17T21:26:55.314Z,25.30
2022-10-17T21:29:23.865Z,25.55
2022-10-17T21:31:51.599Z,24.35
2022-10-17T21:34:22.451Z,25.98
2022-10-17T21:36:49.802Z,25.42
2022-10-17T21:39:17.883Z,25.27
2022-10-17T21:41:45.447Z,25.13
2022-10-17T21:44:15.627Z,26.27
2022-10-17T21:46:43.361Z,25.77
2022-10-17T21:49:17.118Z,23.88
2022-10-17T21:51:44.950Z,25.88
2022-10-17T21:54:13.891Z,25.50
2022-10-17T21:56:41.950Z,24.55
2022-10-17T21:59:10.053Z,24.95
2022-10-17T22:01:39.862Z,24.48
2022-10-17T22:04:10.376Z,22.73
2022-10-17T22:06:40.555Z,25.05
2022-10-17T22:09:23.197Z,24.25
2022-10-17T22:11:54.455Z,24.60
2022-10-17T22:14:24.524Z,24.90
2022-10-17T22:16:52.159Z,23.63
2022-10-17T22:19:24.485Z,24.35
2022-10-17T22:21:52.039Z,23.10
2022-10-17T22:26:48.626Z,23.60
2022-10-17T22:29:16.336Z,20.35
2022-10-17T22:31:44.035Z,22.75
2022-10-17T22:34:14.243Z,24.45
2022-10-17T22:36:41.942Z,24.15
2022-10-17T22:39:10.093Z,26.20
2022-10-17T22:41:37.510Z,23.48
2022-10-17T22:44:05.592Z,23.83
2022-10-17T22:46:32.941Z,22.48
2022-10-17T22:49:00.746Z,23.92
2022-10-17T22:51:28.256Z,25.65
2022-10-17T22:53:55.819Z,23.70
2022-10-17T22:56:23.786Z,23.25
2022-10-17T22:58:52.024Z,25.48
2022-10-17T23:01:22.214Z,25.08
2022-10-17T23:03:50.928Z,26.25
2022-10-17T23:06:19.062Z,25.70
2022-10-17T23:08:47.723Z,26.98
2022-10-17T23:11:15.437Z,25.05
2022-10-17T23:13:43.345Z,24.67
2022-10-17T23:16:10.913Z,25.15
2022-10-17T23:18:40.065Z,26.63
2022-10-17T23:21:07.782Z,26.90
2022-10-17T23:23:37.198Z,26.50
2022-10-17T23:26:10.150Z,25.83
2022-10-17T23:28:38.506Z,26.85
2022-10-17T23:31:14.084Z,28.85
2022-10-17T23:33:42.071Z,26.13
2022-10-17T23:36:11.376Z,27.00
2022-10-17T23:38:41.753Z,26.60
2022-10-17T23:41:09.321Z,27.65
2022-10-17T23:43:37.491Z,27.60
2022-10-17T23:46:05.972Z,28.45
2022-10-17T23:48:34.041Z,27.88
2022-10-17T23:51:01.747Z,25.48
2022-10-17T23:53:29.321Z,26.10
2022-10-17T23:55:56.826Z,26.63
2022-10-17T23:58:24.440Z,27.35
